Kittitas, WA

4:28 AM PDT on August 20, 2014 (GMT -0700)
Grasslands | Change Station
CLOSE
Current Station
Personal Weather Station
Location: Ellensburg, WA
Elevation: 1550 ft
Nearby Weather Stations

Elev 1550 ft 46.99 °N, 120.51 °W | Updated 3 minutes ago

Clear
Clear
63.7 °F
Feels Like 63.7 °F
N
1.3
Wind Variable Wind from NW
Gusts 6.7 mph

Today
High -- | Low -- °F
--% Chance of Precip.
Yesterday
High -- | Low -- °F
Precip. -- in
6:05 AM 8:03 PM
Waning Crescent, 22% visible
Pressure 29.73 in
Visibility 10.0 miles
Clouds Clear
Dew Point 51 °F
Humidity 61%
Rainfall -999.00 in
Snow Depth Not available.
UV 0 out of 12
Pollen 4.20 out of 12
Air Quality Not available.
Flu Activity Not available.
METAR KELN 201053Z AUTO 32012KT 10SM CLR 19/11 A2977 RMK AO2 SLP068 T01890111

More Conditions Fewer Conditions

Pressure 29.73 in
Visibility 10.0 miles
Clouds Clear
Dew Point 51 °F
Humidity 61%
Rainfall -999.00 in
Snow Depth Not available.
UV 0 out of 12
Pollen 4.20 out of 12
Air Quality Not available.
Flu Activity Not available.
METAR KELN 201053Z AUTO 32012KT 10SM CLR 19/11 A2977 RMK AO2 SLP068 T01890111

More Conditions Fewer Conditions

10-Day Weather Forecast

Almanac

Astronomy

Aug. 20, 2014 Rise Set
Actual Time 6:05 AM PDT 8:03 PM PDT
Civil Twilight 5:32 AM PDT 8:36 PM PDT
Nautical Twilight 4:52 AM PDT 9:16 PM PDT
Astronomical Twilight 4:07 AM PDT 10:00 PM PDT
Moon 1:42 AM PDT 4:59 PM PDT
Length of Visible Light 15h 03m
Length of Day
13h 57m
Tomorrow will be 3m 6s shorter.
Waning Crescent, 22% of the Moon is Illuminated
Today
Waning Crescent
Aug 25
New
Sep 2
First Quarter
Sep 8
Full
Sep 15
Last Quarter

Today's Extremes

State Highs State Lows

Community

WunderPhotos

Upload Photos

1,745,611 photos uploaded!

Nearby

Snow Depth

Station Depth Elevation
Trough 0 in 5300 ft
Grouse Camp 0 in 5380 ft
Upper Wheeler 0 in 4400 ft
Blewett Pass 0 in 4270 ft
Sasse Ridge 0 in 4200 ft

Earthquake Activity

City Distance Mag. Time & Date
No recent earthquake activity has been reported nearby.
Minimum magnitude displayed is 2.5.

Coastal Water Temperatures

Place Temperature
No Stations Reporting

Nearby Weather Stations